createdAt,value
2017-01-07T00:00:58.250Z,18.17
2017-01-07T00:02:07.353Z,18.03
2017-01-07T00:03:16.087Z,18.1
2017-01-07T00:04:25.221Z,18.05
2017-01-07T00:05:34.335Z,18.15
2017-01-07T00:06:43.826Z,18.1
2017-01-07T00:07:52.556Z,18.14
2017-01-07T00:09:01.245Z,18.1
2017-01-07T00:10:10.746Z,18.08
2017-01-07T00:11:19.820Z,18.05
2017-01-07T00:12:29.287Z,18.08
2017-01-07T00:13:38.378Z,18
2017-01-07T00:14:47.865Z,18.05
2017-01-07T00:15:56.570Z,18.03
2017-01-07T00:17:05.298Z,18.03
2017-01-07T00:18:14.015Z,18.1
2017-01-07T00:19:23.129Z,18
2017-01-07T00:20:31.833Z,18.05
2017-01-07T00:21:41.308Z,18.1
2017-01-07T00:22:49.999Z,18.05
2017-01-07T00:23:59.086Z,18.08
2017-01-07T00:25:08.216Z,18.08
2017-01-07T00:26:17.315Z,18
2017-01-07T00:27:26.839Z,18.03
2017-01-07T00:28:35.953Z,18.08
2017-01-07T00:29:45.063Z,18.05
2017-01-07T00:30:54.182Z,18.08
2017-01-07T00:32:04.430Z,18.05
2017-01-07T00:33:13.926Z,18.05
2017-01-07T00:34:23.410Z,18.12
2017-01-07T00:35:32.488Z,18.03
2017-01-07T00:36:41.576Z,18.1
2017-01-07T00:37:50.298Z,18.08
2017-01-07T00:38:59.004Z,18.11
2017-01-07T00:40:08.485Z,18.1
2017-01-07T00:41:17.960Z,18.03
2017-01-07T00:42:26.662Z,18.07
2017-01-07T00:43:35.745Z,18.07
2017-01-07T00:44:45.209Z,18.03
2017-01-07T00:45:54.297Z,18.08
2017-01-07T00:47:03.015Z,18.08
2017-01-07T00:48:12.103Z,18.08
2017-01-07T00:49:21.176Z,18.02
2017-01-07T00:50:30.284Z,18.05
2017-01-07T00:51:39.364Z,17.99
2017-01-07T00:52:48.473Z,18.05
2017-01-07T00:53:57.176Z,18.1
2017-01-07T00:55:06.710Z,18.05
2017-01-07T00:56:15.802Z,18.07
2017-01-07T00:57:24.525Z,18.07
2017-01-07T00:58:33.641Z,18.07
2017-01-07T00:59:42.726Z,18.08
2017-01-07T01:00:51.803Z,18.07
2017-01-07T01:02:00.902Z,18
2017-01-07T01:03:10.919Z,18.02
2017-01-07T01:04:20.398Z,18.02
2017-01-07T01:05:29.897Z,18.03
2017-01-07T01:06:38.992Z,17.99
2017-01-07T01:07:48.089Z,18.03
2017-01-07T01:08:57.183Z,18.05
2017-01-07T01:10:06.298Z,18.03
2017-01-07T01:11:15.789Z,18
2017-01-07T01:12:24.860Z,18.08
2017-01-07T01:13:33.948Z,18.02
2017-01-07T01:14:43.033Z,18.02
2017-01-07T01:15:52.525Z,18
2017-01-07T01:17:01.224Z,18.05
2017-01-07T01:18:10.012Z,18.02
2017-01-07T01:19:19.503Z,18.03
2017-01-07T01:20:28.212Z,17.99
2017-01-07T01:21:37.313Z,18.05
2017-01-07T01:22:45.989Z,18.05
2017-01-07T01:23:55.071Z,18.03
2017-01-07T01:25:04.170Z,18.05
2017-01-07T01:26:14.034Z,18.05
2017-01-07T01:27:22.725Z,18.08
2017-01-07T01:28:32.639Z,18
2017-01-07T01:29:42.144Z,18.05
2017-01-07T01:30:50.863Z,18.03
2017-01-07T01:31:59.597Z,17.95
2017-01-07T01:33:08.293Z,18.05
2017-01-07T01:34:17.400Z,17.99
2017-01-07T01:35:26.539Z,17.97
2017-01-07T01:36:35.632Z,17.95
2017-01-07T01:37:44.354Z,17.95
2017-01-07T01:38:53.044Z,17.99
2017-01-07T01:40:01.750Z,18.02
2017-01-07T01:41:10.838Z,17.97
2017-01-07T01:42:19.579Z,17.96
2017-01-07T01:43:28.697Z,17.97
2017-01-07T01:44:37.817Z,18.03
2017-01-07T01:45:46.939Z,17.99
2017-01-07T01:46:56.040Z,17.93
2017-01-07T01:48:05.521Z,18
2017-01-07T01:49:14.225Z,17.99
2017-01-07T01:50:22.945Z,18
2017-01-07T01:51:32.422Z,18
2017-01-07T01:52:42.274Z,18
2017-01-07T01:53:51.793Z,17.99
2017-01-07T01:55:00.531Z,17.95
2017-01-07T01:56:10.004Z,17.9
2017-01-07T01:57:19.094Z,18.02
2017-01-07T01:58:28.180Z,17.89
2017-01-07T01:59:37.273Z,17.87
2017-01-07T02:00:47.168Z,18
2017-01-07T02:01:56.649Z,17.96
2017-01-07T02:03:05.349Z,18.03
2017-01-07T02:04:14.426Z,17.89
2017-01-07T02:05:23.919Z,17.86
2017-01-07T02:06:33.394Z,17.96
2017-01-07T02:07:42.087Z,17.89
2017-01-07T02:08:51.187Z,17.89
2017-01-07T02:10:00.297Z,17.9
2017-01-07T02:11:09.001Z,17.92
2017-01-07T02:12:18.091Z,17.92
2017-01-07T02:13:27.961Z,17.95
2017-01-07T02:14:37.043Z,17.92
2017-01-07T02:15:45.748Z,17.87
2017-01-07T02:16:54.456Z,17.9
2017-01-07T02:18:03.155Z,17.92
2017-01-07T02:19:13.427Z,17.9
2017-01-07T02:20:22.561Z,17.92
2017-01-07T02:21:31.255Z,17.92
2017-01-07T02:22:39.951Z,17.86
2017-01-07T02:23:49.460Z,17.9
2017-01-07T02:24:58.560Z,17.87
2017-01-07T02:26:07.273Z,17.92
2017-01-07T02:27:16.738Z,17.89
2017-01-07T02:28:26.600Z,17.86
2017-01-07T02:29:36.078Z,17.87
2017-01-07T02:30:45.221Z,17.96
2017-01-07T02:31:54.320Z,17.93
2017-01-07T02:33:03.015Z,17.86
2017-01-07T02:34:12.875Z,17.92
2017-01-07T02:35:22.362Z,17.92
2017-01-07T02:36:31.527Z,17.9
2017-01-07T02:37:40.296Z,17.89
2017-01-07T02:38:49.390Z,17.92
2017-01-07T02:39:58.113Z,17.89
2017-01-07T02:41:06.822Z,17.84
2017-01-07T02:42:15.546Z,17.87
2017-01-07T02:43:24.325Z,17.82
2017-01-07T02:44:33.871Z,17.89
2017-01-07T02:45:43.420Z,17.84
2017-01-07T02:46:52.508Z,17.86
2017-01-07T02:48:01.583Z,17.84
2017-01-07T02:49:11.060Z,17.82
2017-01-07T02:50:20.130Z,17.81
2017-01-07T02:51:29.625Z,17.82
2017-01-07T02:52:38.715Z,17.87
2017-01-07T02:53:47.799Z,17.86
2017-01-07T02:54:56.509Z,17.79
2017-01-07T02:56:05.592Z,17.84
2017-01-07T02:57:14.342Z,17.82
2017-01-07T02:58:23.543Z,17.79
2017-01-07T02:59:32.289Z,17.86
2017-01-07T03:00:41.416Z,17.79
2017-01-07T03:01:50.121Z,17.78
2017-01-07T03:02:59.261Z,17.89
2017-01-07T03:04:07.972Z,17.84
2017-01-07T03:05:17.439Z,17.81
2017-01-07T03:06:26.944Z,17.79
2017-01-07T03:07:35.679Z,17.86
2017-01-07T03:08:45.155Z,17.75
2017-01-07T03:09:54.256Z,17.79
2017-01-07T03:11:03.375Z,17.72
2017-01-07T03:12:12.936Z,17.77
2017-01-07T03:13:22.022Z,17.74
2017-01-07T03:14:30.751Z,17.75
2017-01-07T03:15:39.847Z,17.77
2017-01-07T03:16:48.951Z,17.78
2017-01-07T03:17:58.461Z,17.75
2017-01-07T03:19:07.569Z,17.75
2017-01-07T03:20:16.692Z,17.72
2017-01-07T03:21:25.785Z,17.72
2017-01-07T03:22:34.877Z,17.77
2017-01-07T03:23:43.613Z,17.79
2017-01-07T03:24:52.685Z,17.72
2017-01-07T03:26:01.384Z,17.74
2017-01-07T03:27:10.508Z,17.72
2017-01-07T03:28:19.606Z,17.77
2017-01-07T03:29:28.703Z,17.74
2017-01-07T03:30:37.770Z,17.72
2017-01-07T03:31:46.469Z,17.77
2017-01-07T03:32:55.551Z,17.71
2017-01-07T03:34:04.276Z,17.68
2017-01-07T03:35:13.025Z,17.74
2017-01-07T03:36:21.720Z,17.7
2017-01-07T03:37:30.817Z,17.7
2017-01-07T03:38:40.695Z,17.66
2017-01-07T03:39:49.378Z,17.74
2017-01-07T03:40:58.501Z,17.68
2017-01-07T03:42:07.612Z,17.71
2017-01-07T03:43:16.689Z,17.7
2017-01-07T03:44:25.772Z,17.66
2017-01-07T03:45:34.478Z,17.75
2017-01-07T03:46:43.600Z,17.66
2017-01-07T03:47:52.684Z,17.63
2017-01-07T03:49:01.410Z,17.71
2017-01-07T03:50:10.134Z,17.74
2017-01-07T03:51:19.255Z,17.63
2017-01-07T03:52:28.414Z,17.7
2017-01-07T03:53:37.117Z,17.71
2017-01-07T03:54:46.225Z,17.72
2017-01-07T03:55:54.970Z,17.71
2017-01-07T03:57:04.841Z,17.71
2017-01-07T03:58:13.579Z,17.72
2017-01-07T03:59:22.280Z,17.71
2017-01-07T04:00:31.389Z,17.7
2017-01-07T04:01:40.867Z,17.64
2017-01-07T04:02:50.383Z,17.7
2017-01-07T04:03:59.091Z,17.66
2017-01-07T04:05:08.994Z,17.63
2017-01-07T04:06:18.490Z,17.62
2017-01-07T04:07:27.590Z,17.7
2017-01-07T04:08:36.693Z,17.68
2017-01-07T04:09:46.169Z,17.63
2017-01-07T04:10:54.876Z,17.7
2017-01-07T04:12:03.992Z,17.66
2017-01-07T04:13:12.723Z,17.66
2017-01-07T04:14:22.193Z,17.63
2017-01-07T04:15:30.893Z,17.64
2017-01-07T04:16:40.364Z,17.72
2017-01-07T04:17:49.473Z,17.64
2017-01-07T04:18:58.163Z,17.7
2017-01-07T04:20:07.666Z,17.63
2017-01-07T04:21:16.761Z,17.58
2017-01-07T04:22:26.256Z,17.64
2017-01-07T04:23:34.959Z,17.64
2017-01-07T04:24:44.053Z,17.66
2017-01-07T04:25:53.161Z,17.71
2017-01-07T04:27:02.269Z,17.68
2017-01-07T04:28:11.353Z,17.68
2017-01-07T04:29:20.847Z,17.62
2017-01-07T04:30:29.948Z,17.62
2017-01-07T04:31:38.655Z,17.64
2017-01-07T04:32:48.937Z,17.7
2017-01-07T04:33:58.459Z,17.55
2017-01-07T04:35:07.582Z,17.52
2017-01-07T04:36:17.098Z,17.52
2017-01-07T04:37:26.222Z,17.63
2017-01-07T04:38:35.331Z,17.58
2017-01-07T04:39:44.018Z,17.59
2017-01-07T04:40:53.120Z,17.56
2017-01-07T04:42:01.818Z,17.62
2017-01-07T04:43:10.518Z,17.56
2017-01-07T04:44:19.215Z,17.58
2017-01-07T04:45:28.716Z,17.56
2017-01-07T04:46:38.597Z,17.49
2017-01-07T04:47:48.091Z,17.56
2017-01-07T04:48:57.554Z,17.55
2017-01-07T04:50:06.666Z,17.62
2017-01-07T04:51:15.348Z,17.59
2017-01-07T04:52:24.445Z,17.56
2017-01-07T04:53:33.139Z,17.56
2017-01-07T04:54:42.644Z,17.62
2017-01-07T04:55:51.736Z,17.59
2017-01-07T04:57:00.465Z,17.51
2017-01-07T04:58:09.593Z,17.51
2017-01-07T04:59:18.310Z,17.49
2017-01-07T05:00:27.797Z,17.48
2017-01-07T05:01:37.259Z,17.48
2017-01-07T05:02:45.960Z,17.54
2017-01-07T05:03:55.065Z,17.46
2017-01-07T05:05:04.542Z,17.52
2017-01-07T05:06:14.020Z,17.48
2017-01-07T05:07:22.733Z,17.46
2017-01-07T05:08:31.822Z,17.49
2017-01-07T05:09:40.548Z,17.48
2017-01-07T05:10:49.256Z,17.51
2017-01-07T05:11:58.745Z,17.48
2017-01-07T05:13:08.229Z,17.41
2017-01-07T05:14:17.327Z,17.41
2017-01-07T05:15:26.417Z,17.48
2017-01-07T05:16:35.951Z,17.48
2017-01-07T05:17:44.648Z,17.46
2017-01-07T05:18:53.756Z,17.46
2017-01-07T05:20:02.455Z,17.55
2017-01-07T05:21:11.216Z,17.48
2017-01-07T05:22:20.701Z,17.51
2017-01-07T05:23:29.402Z,17.55
2017-01-07T05:24:38.102Z,17.44
2017-01-07T05:25:47.182Z,17.48
2017-01-07T05:26:55.905Z,17.46
2017-01-07T05:28:04.939Z,17.44
2017-01-07T05:29:14.012Z,17.49
2017-01-07T05:30:23.870Z,17.55
2017-01-07T05:31:32.566Z,17.44
2017-01-07T05:32:41.644Z,17.54
2017-01-07T05:33:50.758Z,17.41
2017-01-07T05:34:59.856Z,17.51
2017-01-07T05:36:09.743Z,17.41
2017-01-07T05:37:18.447Z,17.49
2017-01-07T05:38:27.137Z,17.44
2017-01-07T05:39:36.223Z,17.51
2017-01-07T05:40:45.321Z,17.41
2017-01-07T05:41:54.014Z,17.44
2017-01-07T05:43:03.091Z,17.41
2017-01-07T05:44:12.173Z,17.48
2017-01-07T05:45:21.303Z,17.44
2017-01-07T05:46:30.426Z,17.51
2017-01-07T05:47:39.551Z,17.54
2017-01-07T05:48:48.240Z,17.44
2017-01-07T05:49:57.777Z,17.48
2017-01-07T05:51:06.502Z,17.37
2017-01-07T05:52:15.200Z,17.48
2017-01-07T05:53:24.286Z,17.46
2017-01-07T05:54:33.411Z,17.41
2017-01-07T05:55:42.098Z,17.44
2017-01-07T05:56:50.789Z,17.46
2017-01-07T05:57:59.513Z,17.49
2017-01-07T05:59:08.616Z,17.44
2017-01-07T06:00:17.715Z,17.4
2017-01-07T06:01:26.421Z,17.43
2017-01-07T06:02:35.509Z,17.48
2017-01-07T06:03:44.206Z,17.51
2017-01-07T06:04:52.901Z,17.44
2017-01-07T06:06:02.383Z,17.52
2017-01-07T06:07:11.856Z,17.48
2017-01-07T06:08:21.333Z,17.4
2017-01-07T06:09:30.829Z,17.46
2017-01-07T06:10:39.913Z,17.44
2017-01-07T06:11:49.395Z,17.44
2017-01-07T06:12:58.489Z,17.52
2017-01-07T06:14:07.595Z,17.51
2017-01-07T06:15:16.298Z,17.46
2017-01-07T06:16:25.408Z,17.43
2017-01-07T06:17:34.525Z,17.44
2017-01-07T06:18:43.262Z,17.44
2017-01-07T06:19:52.364Z,17.41
2017-01-07T06:21:01.091Z,17.46
2017-01-07T06:22:10.186Z,17.48
2017-01-07T06:23:19.286Z,17.41
2017-01-07T06:24:28.778Z,17.48
2017-01-07T06:25:37.873Z,17.44
2017-01-07T06:26:46.973Z,17.46
2017-01-07T06:27:55.717Z,17.48
2017-01-07T06:29:05.205Z,17.44
2017-01-07T06:30:15.088Z,17.4
2017-01-07T06:31:24.179Z,17.43
2017-01-07T06:32:33.661Z,17.43
2017-01-07T06:33:42.728Z,17.46
2017-01-07T06:34:51.448Z,17.44
2017-01-07T06:36:00.569Z,17.41
2017-01-07T06:37:09.843Z,17.51
2017-01-07T06:38:18.945Z,17.44
2017-01-07T06:39:28.013Z,17.38
2017-01-07T06:40:36.713Z,17.52
2017-01-07T06:41:45.424Z,17.46
2017-01-07T06:42:54.982Z,17.41
2017-01-07T06:44:04.864Z,17.48
2017-01-07T06:45:14.368Z,17.44
2017-01-07T06:46:23.065Z,17.4
2017-01-07T06:47:32.601Z,17.46
2017-01-07T06:48:41.758Z,17.44
2017-01-07T06:49:50.861Z,17.48
2017-01-07T06:50:59.960Z,17.44
2017-01-07T06:52:09.094Z,17.43
2017-01-07T06:53:18.196Z,17.52
2017-01-07T06:54:26.899Z,17.52
2017-01-07T06:55:35.970Z,17.49
2017-01-07T06:56:45.066Z,17.46
2017-01-07T06:57:54.548Z,17.49
2017-01-07T06:59:04.422Z,17.49
2017-01-07T07:00:13.541Z,17.48
2017-01-07T07:01:22.690Z,17.48
2017-01-07T07:02:31.785Z,17.46
2017-01-07T07:03:40.492Z,17.46
2017-01-07T07:04:49.188Z,17.41
2017-01-07T07:05:57.930Z,17.48
2017-01-07T07:07:07.441Z,17.48
2017-01-07T07:08:16.148Z,17.43
2017-01-07T07:09:25.253Z,17.4
2017-01-07T07:10:33.964Z,17.44
2017-01-07T07:11:43.045Z,17.48
2017-01-07T07:12:52.141Z,17.41
2017-01-07T07:14:01.645Z,17.41
2017-01-07T07:15:10.762Z,17.43
2017-01-07T07:16:19.840Z,17.49
2017-01-07T07:17:29.331Z,17.41
2017-01-07T07:18:38.446Z,17.4
2017-01-07T07:19:48.378Z,17.4
2017-01-07T07:20:57.888Z,17.52
2017-01-07T07:22:06.612Z,17.48
2017-01-07T07:23:16.072Z,17.46
2017-01-07T07:24:25.587Z,17.48
2017-01-07T07:25:34.662Z,17.49
2017-01-07T07:26:43.823Z,17.44
2017-01-07T07:27:52.952Z,17.49
2017-01-07T07:29:02.047Z,17.4
2017-01-07T07:30:10.792Z,17.44
2017-01-07T07:31:19.872Z,17.46
2017-01-07T07:32:29.360Z,17.43
2017-01-07T07:33:38.448Z,17.43
2017-01-07T07:34:47.972Z,17.41
2017-01-07T07:35:56.716Z,17.46
2017-01-07T07:37:05.802Z,17.4
2017-01-07T07:38:14.873Z,17.46
2017-01-07T07:39:23.595Z,17.37
2017-01-07T07:40:32.824Z,17.44
2017-01-07T07:41:41.903Z,17.36
2017-01-07T07:42:50.599Z,17.38
2017-01-07T07:43:59.688Z,17.41
2017-01-07T07:45:08.786Z,17.33
2017-01-07T07:46:17.876Z,17.36
2017-01-07T07:47:26.571Z,17.28
2017-01-07T07:48:36.042Z,17.43
2017-01-07T07:49:44.748Z,17.44
2017-01-07T07:50:54.225Z,17.4
2017-01-07T07:52:02.926Z,17.3
2017-01-07T07:53:12.010Z,17.33
2017-01-07T07:54:21.099Z,17.44
2017-01-07T07:55:29.812Z,17.36
2017-01-07T07:56:38.525Z,17.34
2017-01-07T07:57:47.270Z,17.3
2017-01-07T07:58:56.771Z,17.28
2017-01-07T08:00:05.867Z,17.3
2017-01-07T08:01:15.787Z,17.31
2017-01-07T08:02:44.103Z,17.31
2017-01-07T08:03:53.217Z,17.31
2017-01-07T08:05:02.363Z,17.33
2017-01-07T08:06:11.870Z,17.25
2017-01-07T08:07:20.599Z,17.3
2017-01-07T08:08:30.072Z,17.33
2017-01-07T08:09:39.566Z,17.33
2017-01-07T08:10:49.025Z,17.33
2017-01-07T08:11:58.107Z,17.34
2017-01-07T08:13:06.810Z,17.26
2017-01-07T08:14:16.322Z,17.38
2017-01-07T08:15:25.019Z,17.36
2017-01-07T08:16:34.159Z,17.36
2017-01-07T08:17:43.634Z,17.44
2017-01-07T08:18:53.104Z,17.44
2017-01-07T08:20:02.211Z,17.49
2017-01-07T08:21:11.303Z,17.49
2017-01-07T08:22:20.387Z,17.58
2017-01-07T08:23:29.118Z,17.62
2017-01-07T08:24:38.613Z,17.71
2017-01-07T08:25:48.856Z,17.75
2017-01-07T08:26:58.336Z,17.75
2017-01-07T08:28:07.053Z,17.93
2017-01-07T08:29:16.120Z,17.92
2017-01-07T08:30:25.249Z,17.95
2017-01-07T08:31:34.769Z,18.03
2017-01-07T08:32:43.882Z,18.1
2017-01-07T08:33:53.737Z,18.15
2017-01-07T08:35:02.450Z,18.27
2017-01-07T08:36:11.178Z,18.36
2017-01-07T08:37:20.316Z,18.48
2017-01-07T08:38:29.035Z,18.44
2017-01-07T08:39:38.176Z,18.45
2017-01-07T08:40:47.702Z,18.62
2017-01-07T08:41:56.405Z,18.57
2017-01-07T08:43:05.569Z,18.7
2017-01-07T08:44:14.292Z,18.72
2017-01-07T08:45:23.005Z,18.75
2017-01-07T08:46:32.092Z,18.85
2017-01-07T08:47:40.832Z,18.9
2017-01-07T08:48:50.300Z,18.91
2017-01-07T08:49:59.399Z,18.92
2017-01-07T08:51:08.878Z,19
2017-01-07T08:52:17.977Z,19.02
2017-01-07T08:53:27.074Z,19.07
2017-01-07T08:54:35.793Z,19.08
2017-01-07T08:55:45.272Z,19.16
2017-01-07T08:56:53.983Z,19.21
2017-01-07T08:58:03.462Z,19.25
2017-01-07T08:59:12.566Z,19.25
2017-01-07T09:00:21.647Z,19.32
2017-01-07T09:01:31.144Z,19.28
2017-01-07T09:02:39.866Z,19.31
2017-01-07T09:03:49.728Z,19.37
2017-01-07T09:04:58.806Z,19.54
2017-01-07T09:06:07.515Z,19.43
2017-01-07T09:07:16.261Z,19.55
2017-01-07T09:08:25.002Z,19.61
2017-01-07T09:09:33.777Z,19.58
2017-01-07T09:10:42.850Z,19.62
2017-01-07T09:11:51.936Z,19.69
2017-01-07T09:13:01.059Z,19.68
2017-01-07T09:14:10.140Z,19.69
2017-01-07T09:15:19.247Z,19.71
2017-01-07T09:16:29.160Z,19.73
2017-01-07T09:17:38.257Z,19.77
2017-01-07T09:18:47.770Z,19.78
2017-01-07T09:19:56.872Z,19.92
2017-01-07T09:21:05.949Z,19.92
2017-01-07T09:22:15.045Z,19.91
2017-01-07T09:23:24.595Z,19.91
2017-01-07T09:24:33.733Z,20.02
2017-01-07T09:25:42.826Z,19.98
2017-01-07T09:26:52.336Z,19.99
2017-01-07T09:28:02.271Z,20.08
2017-01-07T09:29:11.008Z,20.06
2017-01-07T09:30:19.761Z,20.08
2017-01-07T09:31:28.473Z,20.2
2017-01-07T09:32:38.020Z,20.17
2017-01-07T09:33:47.516Z,20.28
2017-01-07T09:34:56.655Z,20.36
2017-01-07T09:36:05.764Z,20.39
2017-01-07T09:37:14.859Z,20.41
2017-01-07T09:38:24.346Z,20.5
2017-01-07T09:39:33.099Z,20.58
2017-01-07T09:40:41.852Z,20.61
2017-01-07T09:41:51.751Z,20.61
2017-01-07T09:43:00.856Z,20.74
2017-01-07T09:44:10.349Z,20.67
2017-01-07T09:45:19.451Z,20.66
2017-01-07T09:46:29.330Z,20.72
2017-01-07T09:47:38.448Z,20.82
2017-01-07T09:48:47.171Z,20.76
2017-01-07T09:49:56.687Z,20.88
2017-01-07T09:51:06.166Z,20.82
2017-01-07T09:52:14.913Z,20.92
2017-01-07T09:53:24.015Z,20.92
2017-01-07T09:54:32.759Z,20.97
2017-01-07T09:55:42.672Z,20.99
2017-01-07T09:56:51.832Z,21.1
2017-01-07T09:58:00.566Z,21.12
2017-01-07T09:59:09.277Z,21.21
2017-01-07T10:00:17.995Z,21.13
2017-01-07T10:01:27.495Z,21.22
2017-01-07T10:02:36.676Z,21.21
2017-01-07T10:03:45.834Z,21.27
2017-01-07T10:04:55.383Z,21.21
2017-01-07T10:06:04.489Z,21.25
2017-01-07T10:07:13.247Z,21.25
2017-01-07T10:08:22.377Z,21.25
2017-01-07T10:09:31.506Z,21.22
2017-01-07T10:10:41.054Z,21.17
2017-01-07T10:11:49.781Z,21.25
2017-01-07T10:12:58.885Z,21.24
2017-01-07T10:14:07.977Z,21.16
2017-01-07T10:15:17.464Z,20.91
2017-01-07T10:16:26.573Z,20.67
2017-01-07T10:17:36.763Z,20.2
2017-01-07T10:18:45.976Z,19.76
2017-01-07T10:19:56.052Z,19.36
2017-01-07T10:21:05.616Z,18.98
2017-01-07T10:22:14.700Z,18.66
2017-01-07T10:23:23.782Z,18.17
2017-01-07T10:24:32.857Z,17.89
2017-01-07T10:25:41.553Z,17.49
2017-01-07T10:26:50.245Z,17.19
2017-01-07T10:27:59.343Z,16.82
2017-01-07T10:29:08.443Z,16.5
2017-01-07T10:30:17.207Z,16.2
2017-01-07T10:31:26.387Z,15.92
2017-01-07T10:32:36.255Z,15.69
2017-01-07T10:33:46.113Z,15.47
2017-01-07T10:34:55.603Z,15.23
2017-01-07T10:36:04.727Z,15.07
2017-01-07T10:37:13.433Z,14.94
2017-01-07T10:38:22.570Z,14.68
2017-01-07T10:39:32.065Z,14.51
2017-01-07T10:40:41.166Z,14.35
2017-01-07T10:41:49.861Z,14.17
2017-01-07T10:42:58.931Z,14.12
2017-01-07T10:44:07.640Z,14.12
2017-01-07T10:45:16.362Z,14.15
2017-01-07T10:46:25.833Z,14.35
2017-01-07T10:47:34.927Z,14.42
2017-01-07T10:48:43.616Z,14.7
2017-01-07T10:49:52.302Z,14.88
2017-01-07T10:51:00.984Z,15.06
2017-01-07T10:52:10.469Z,15.21
2017-01-07T10:53:19.555Z,15.41
2017-01-07T10:54:29.050Z,15.57
2017-01-07T10:55:38.526Z,15.74
2017-01-07T10:56:47.646Z,15.97
2017-01-07T10:57:57.520Z,16.12
2017-01-07T10:59:07.408Z,16.24
2017-01-07T11:00:16.514Z,16.45
2017-01-07T11:01:25.211Z,16.5
2017-01-07T11:02:33.927Z,16.75
2017-01-07T11:03:43.409Z,16.85
2017-01-07T11:04:52.888Z,16.98
2017-01-07T11:06:01.974Z,17.08
2017-01-07T11:07:11.443Z,17.04
2017-01-07T11:08:20.940Z,17.18
2017-01-07T11:09:30.009Z,17.3
2017-01-07T11:10:39.474Z,17.51
2017-01-07T11:11:48.940Z,17.56
2017-01-07T11:12:58.062Z,17.59
2017-01-07T11:14:06.748Z,17.71
2017-01-07T11:15:16.225Z,17.79
2017-01-07T11:16:25.345Z,17.87
2017-01-07T11:17:34.057Z,17.93
2017-01-07T11:18:43.549Z,17.96
2017-01-07T11:19:52.247Z,18.05
2017-01-07T11:21:00.941Z,18.12
2017-01-07T11:22:10.457Z,18.2
2017-01-07T11:23:19.940Z,18.27
2017-01-07T11:24:29.029Z,18.29
2017-01-07T11:25:38.490Z,18.48
2017-01-07T11:26:47.194Z,18.48
2017-01-07T11:27:56.299Z,18.51
2017-01-07T11:29:04.988Z,18.55
2017-01-07T11:30:14.490Z,18.67
2017-01-07T11:31:23.991Z,18.63
2017-01-07T11:32:33.084Z,18.7
2017-01-07T11:33:42.182Z,18.76
2017-01-07T11:34:50.911Z,18.76
2017-01-07T11:35:59.997Z,18.9
2017-01-07T11:37:08.724Z,18.92
2017-01-07T11:38:17.846Z,18.84
2017-01-07T11:39:26.548Z,18.92
2017-01-07T11:40:36.064Z,18.94
2017-01-07T11:41:45.531Z,19
2017-01-07T11:42:54.613Z,19.07
2017-01-07T11:44:03.769Z,19.07
2017-01-07T11:45:13.256Z,19.04
2017-01-07T11:46:22.380Z,19.13
2017-01-07T11:47:31.500Z,19.22
2017-01-07T11:48:41.445Z,19.25
2017-01-07T11:49:50.152Z,19.22
2017-01-07T11:50:58.919Z,19.26
2017-01-07T11:52:08.440Z,19.22
2017-01-07T11:53:17.562Z,19.29
2017-01-07T11:54:26.668Z,19.36
2017-01-07T11:55:35.369Z,19.39
2017-01-07T11:56:44.068Z,19.39
2017-01-07T11:57:53.554Z,19.36
2017-01-07T11:59:02.669Z,19.47
2017-01-07T12:00:11.772Z,19.44
2017-01-07T12:01:20.483Z,19.46
2017-01-07T12:02:29.581Z,19.47
2017-01-07T12:03:38.683Z,19.43
2017-01-07T12:04:47.382Z,19.54
2017-01-07T12:05:56.555Z,19.56
2017-01-07T12:07:05.739Z,19.59
2017-01-07T12:08:14.917Z,19.62
2017-01-07T12:09:23.660Z,19.58
2017-01-07T12:10:33.109Z,19.55
2017-01-07T12:11:41.866Z,19.65
2017-01-07T12:12:50.596Z,19.65
2017-01-07T12:13:59.762Z,19.65
2017-01-07T12:15:08.857Z,19.69
2017-01-07T12:16:17.984Z,19.65
2017-01-07T12:17:27.473Z,19.68
2017-01-07T12:18:36.954Z,19.76
2017-01-07T12:19:46.479Z,19.71
2017-01-07T12:20:55.576Z,19.71
2017-01-07T12:22:04.259Z,19.68
2017-01-07T12:23:13.741Z,19.66
2017-01-07T12:24:22.493Z,19.69
2017-01-07T12:25:31.193Z,19.62
2017-01-07T12:26:39.910Z,19.68
2017-01-07T12:27:49.799Z,19.65
2017-01-07T12:28:58.527Z,19.73
2017-01-07T12:30:07.624Z,19.62
2017-01-07T12:31:16.320Z,19.65
2017-01-07T12:32:26.205Z,19.69
2017-01-07T12:33:35.749Z,19.61
2017-01-07T12:34:44.835Z,19.68
2017-01-07T12:35:53.526Z,19.66
2017-01-07T12:37:02.242Z,19.71
2017-01-07T12:38:10.948Z,19.74
2017-01-07T12:39:20.413Z,19.71
2017-01-07T12:40:29.536Z,19.76
2017-01-07T12:41:39.042Z,19.65
2017-01-07T12:42:48.135Z,19.65
2017-01-07T12:43:57.232Z,19.62
2017-01-07T12:45:06.348Z,19.65
2017-01-07T12:46:16.219Z,19.68
2017-01-07T12:47:25.732Z,19.69
2017-01-07T12:48:34.424Z,19.71
2017-01-07T12:49:43.513Z,19.58
2017-01-07T12:50:52.655Z,19.63
2017-01-07T12:52:01.767Z,19.71
2017-01-07T12:53:10.900Z,19.65
2017-01-07T12:54:19.984Z,19.61
2017-01-07T12:55:28.680Z,19.62
2017-01-07T12:56:37.368Z,19.63
2017-01-07T12:57:46.124Z,19.56
2017-01-07T12:58:54.847Z,19.59
2017-01-07T13:00:03.533Z,19.59
2017-01-07T13:01:13.448Z,19.63
2017-01-07T13:02:23.042Z,19.58
2017-01-07T13:03:32.133Z,19.58
2017-01-07T13:04:40.864Z,19.55
2017-01-07T13:05:49.948Z,19.58
2017-01-07T13:06:59.847Z,19.59
2017-01-07T13:08:08.566Z,19.58
2017-01-07T13:09:17.699Z,19.61
2017-01-07T13:10:26.863Z,19.63
2017-01-07T13:11:35.586Z,19.59
2017-01-07T13:12:44.695Z,19.68
2017-01-07T13:13:53.812Z,19.65
2017-01-07T13:15:02.556Z,19.65
2017-01-07T13:16:12.445Z,19.73
2017-01-07T13:17:21.915Z,19.73
2017-01-07T13:18:32.200Z,19.69
2017-01-07T13:19:41.283Z,19.74
2017-01-07T13:20:49.992Z,19.73
2017-01-07T13:21:59.084Z,19.66
2017-01-07T13:23:08.166Z,19.68
2017-01-07T13:24:16.916Z,19.69
2017-01-07T13:25:27.086Z,19.76
2017-01-07T13:26:36.202Z,19.61
2017-01-07T13:27:45.268Z,19.68
2017-01-07T13:28:54.343Z,19.69
2017-01-07T13:30:03.447Z,19.63
2017-01-07T13:31:12.525Z,19.62
2017-01-07T13:32:21.232Z,19.61
2017-01-07T13:33:29.926Z,19.62
2017-01-07T13:34:39.042Z,19.59
2017-01-07T13:35:48.547Z,19.62
2017-01-07T13:36:57.276Z,19.62
2017-01-07T13:38:05.964Z,19.63
2017-01-07T13:39:15.049Z,19.65
2017-01-07T13:40:23.743Z,19.61
2017-01-07T13:41:32.860Z,19.59
2017-01-07T13:42:41.564Z,19.62
2017-01-07T13:43:51.047Z,19.65
2017-01-07T13:44:59.755Z,19.68
2017-01-07T13:46:09.264Z,19.71
2017-01-07T13:47:18.352Z,19.61
2017-01-07T13:48:27.445Z,19.58
2017-01-07T13:49:36.986Z,19.65
2017-01-07T13:50:46.072Z,19.56
2017-01-07T13:51:54.804Z,19.58
2017-01-07T13:53:03.491Z,19.58
2017-01-07T13:54:12.971Z,19.58
2017-01-07T13:55:21.686Z,19.62
2017-01-07T13:56:30.460Z,19.54
2017-01-07T13:57:39.625Z,19.58
2017-01-07T13:58:48.728Z,19.5
2017-01-07T13:59:57.904Z,19.55
2017-01-07T14:01:06.637Z,19.55
2017-01-07T14:02:16.514Z,19.55
2017-01-07T14:03:25.615Z,19.5
2017-01-07T14:04:34.302Z,19.51
2017-01-07T14:05:43.786Z,19.56
2017-01-07T14:06:52.879Z,19.55
2017-01-07T14:08:02.741Z,19.55
2017-01-07T14:09:11.836Z,19.5
2017-01-07T14:10:20.559Z,19.56
2017-01-07T14:11:30.423Z,19.51
2017-01-07T14:12:39.894Z,19.48
2017-01-07T14:13:48.595Z,19.48
2017-01-07T14:14:57.716Z,19.51
2017-01-07T14:16:07.197Z,19.58
2017-01-07T14:17:15.893Z,19.54
2017-01-07T14:18:24.985Z,19.56
2017-01-07T14:19:33.680Z,19.5
2017-01-07T14:20:42.796Z,19.51
2017-01-07T14:21:52.329Z,19.5
2017-01-07T14:23:02.203Z,19.51
2017-01-07T14:24:11.305Z,19.55
2017-01-07T14:25:20.000Z,19.59
2017-01-07T14:26:28.715Z,19.61
2017-01-07T14:27:37.416Z,19.59
2017-01-07T14:28:46.501Z,19.55
2017-01-07T14:29:55.608Z,19.58
2017-01-07T14:31:05.077Z,19.61
2017-01-07T14:32:14.193Z,19.61
2017-01-07T14:33:23.670Z,19.59
2017-01-07T14:34:32.424Z,19.61
2017-01-07T14:35:41.515Z,19.59
2017-01-07T14:36:50.225Z,19.63
2017-01-07T14:37:58.944Z,19.66
2017-01-07T14:39:07.667Z,19.59
2017-01-07T14:40:16.359Z,19.68
2017-01-07T14:41:25.085Z,19.63
2017-01-07T14:42:34.201Z,19.56
2017-01-07T14:43:43.285Z,19.56
2017-01-07T14:44:52.403Z,19.66
2017-01-07T14:46:01.117Z,19.58
2017-01-07T14:47:10.616Z,19.51
2017-01-07T14:48:19.756Z,19.56
2017-01-07T14:49:28.857Z,19.59
2017-01-07T14:50:37.992Z,19.48
2017-01-07T14:51:47.096Z,18.91
2017-01-07T14:52:56.223Z,18.15
2017-01-07T14:54:06.108Z,17.54